sensor_id;sensor_type;location;lat;lon;timestamp;pressure;altitude;pressure_sealevel;temperature;humidity
22255;BME280;11296;42.684;23.322;2022-08-19T00:00:08;94921.91;;;23.71;100.00
22255;BME280;11296;42.684;23.322;2022-08-19T00:02:35;94929.28;;;23.68;100.00
22255;BME280;11296;42.684;23.322;2022-08-19T00:05:01;94929.63;;;23.65;100.00
22255;BME280;11296;42.684;23.322;2022-08-19T00:07:27;94927.47;;;23.55;100.00
22255;BME280;11296;42.684;23.322;2022-08-19T00:09:53;94953.09;;;23.58;100.00
22255;BME280;11296;42.684;23.322;2022-08-19T00:12:19;94918.16;;;23.51;100.00
22255;BME280;11296;42.684;23.322;2022-08-19T00:14:44;94929.19;;;23.36;100.00
22255;BME280;11296;42.684;23.322;2022-08-19T00:17:10;94962.25;;;23.53;100.00
22255;BME280;11296;42.684;23.322;2022-08-19T00:19:37;94951.50;;;23.40;100.00
22255;BME280;11296;42.684;23.322;2022-08-19T00:22:03;94952.06;;;23.31;100.00
22255;BME280;11296;42.684;23.322;2022-08-19T00:24:31;94981.72;;;23.40;100.00
22255;BME280;11296;42.684;23.322;2022-08-19T00:26:57;94964.13;;;23.43;100.00
22255;BME280;11296;42.684;23.322;2022-08-19T00:29:24;94936.72;;;23.28;100.00
22255;BME280;11296;42.684;23.322;2022-08-19T00:31:51;94959.03;;;23.39;100.00
22255;BME280;11296;42.684;23.322;2022-08-19T00:34:20;94982.00;;;23.67;100.00
22255;BME280;11296;42.684;23.322;2022-08-19T00:36:47;94984.22;;;23.53;100.00
22255;BME280;11296;42.684;23.322;2022-08-19T00:39:14;94927.13;;;22.81;100.00
22255;BME280;11296;42.684;23.322;2022-08-19T00:41:42;94939.00;;;22.76;100.00
22255;BME280;11296;42.684;23.322;2022-08-19T00:44:10;94980.31;;;23.09;100.00
22255;BME280;11296;42.684;23.322;2022-08-19T00:46:38;94955.78;;;22.96;100.00
22255;BME280;11296;42.684;23.322;2022-08-19T00:49:27;94958.19;;;22.84;100.00
22255;BME280;11296;42.684;23.322;2022-08-19T00:52:08;94934.97;;;22.77;100.00
22255;BME280;11296;42.684;23.322;2022-08-19T00:54:35;94908.28;;;22.40;100.00
22255;BME280;11296;42.684;23.322;2022-08-19T00:57:04;94939.72;;;22.54;100.00
22255;BME280;11296;42.684;23.322;2022-08-19T00:59:36;94917.59;;;22.37;100.00
22255;BME280;11296;42.684;23.322;2022-08-19T01:02:04;94918.88;;;22.44;100.00
22255;BME280;11296;42.684;23.322;2022-08-19T01:04:30;94914.50;;;22.48;100.00
22255;BME280;11296;42.684;23.322;2022-08-19T01:06:56;94979.94;;;22.97;100.00
22255;BME280;11296;42.684;23.322;2022-08-19T01:09:22;94987.81;;;22.93;100.00
22255;BME280;11296;42.684;23.322;2022-08-19T01:11:50;94921.06;;;22.45;100.00
22255;BME280;11296;42.684;23.322;2022-08-19T01:14:17;94980.66;;;22.82;100.00
22255;BME280;11296;42.684;23.322;2022-08-19T01:16:45;94948.13;;;22.49;100.00
22255;BME280;11296;42.684;23.322;2022-08-19T01:19:28;94960.75;;;22.59;100.00
22255;BME280;11296;42.684;23.322;2022-08-19T01:22:10;94949.41;;;22.48;100.00
22255;BME280;11296;42.684;23.322;2022-08-19T01:24:37;94934.59;;;22.28;100.00
22255;BME280;11296;42.684;23.322;2022-08-19T01:27:05;94926.19;;;22.26;100.00
22255;BME280;11296;42.684;23.322;2022-08-19T01:29:31;94943.53;;;22.36;100.00
22255;BME280;11296;42.684;23.322;2022-08-19T01:31:57;94930.19;;;22.25;100.00
22255;BME280;11296;42.684;23.322;2022-08-19T01:34:23;94946.84;;;22.27;100.00
22255;BME280;11296;42.684;23.322;2022-08-19T01:36:49;94965.66;;;22.38;100.00
22255;BME280;11296;42.684;23.322;2022-08-19T01:39:23;94971.25;;;22.10;100.00
22255;BME280;11296;42.684;23.322;2022-08-19T01:41:52;94946.41;;;22.00;100.00
22255;BME280;11296;42.684;23.322;2022-08-19T01:44:19;94941.50;;;22.06;100.00
22255;BME280;11296;42.684;23.322;2022-08-19T01:46:50;94975.88;;;22.23;100.00
22255;BME280;11296;42.684;23.322;2022-08-19T01:49:21;94926.91;;;22.11;100.00
22255;BME280;11296;42.684;23.322;2022-08-19T01:51:48;94954.66;;;22.16;100.00
22255;BME280;11296;42.684;23.322;2022-08-19T01:54:16;94941.66;;;22.01;100.00
22255;BME280;11296;42.684;23.322;2022-08-19T01:56:42;94926.16;;;21.96;100.00
22255;BME280;11296;42.684;23.322;2022-08-19T01:59:12;94927.78;;;21.99;100.00
22255;BME280;11296;42.684;23.322;2022-08-19T02:01:39;94915.00;;;21.94;100.00
22255;BME280;11296;42.684;23.322;2022-08-19T02:04:04;94959.03;;;22.11;100.00
22255;BME280;11296;42.684;23.322;2022-08-19T02:06:31;94953.38;;;22.09;100.00
22255;BME280;11296;42.684;23.322;2022-08-19T02:08:57;94954.97;;;21.97;100.00
22255;BME280;11296;42.684;23.322;2022-08-19T02:11:29;94944.94;;;21.92;100.00
22255;BME280;11296;42.684;23.322;2022-08-19T02:13:58;94931.97;;;21.85;100.00
22255;BME280;11296;42.684;23.322;2022-08-19T02:16:24;94953.72;;;22.05;100.00
22255;BME280;11296;42.684;23.322;2022-08-19T02:18:50;94943.13;;;22.02;100.00
22255;BME280;11296;42.684;23.322;2022-08-19T02:21:19;94958.84;;;22.09;100.00
22255;BME280;11296;42.684;23.322;2022-08-19T02:23:46;94936.44;;;21.75;100.00
22255;BME280;11296;42.684;23.322;2022-08-19T02:26:12;94970.16;;;21.98;100.00
22255;BME280;11296;42.684;23.322;2022-08-19T02:28:39;94947.06;;;21.78;100.00
22255;BME280;11296;42.684;23.322;2022-08-19T02:31:14;94936.97;;;21.66;100.00
22255;BME280;11296;42.684;23.322;2022-08-19T02:33:40;94936.78;;;21.56;100.00
22255;BME280;11296;42.684;23.322;2022-08-19T02:36:07;94939.50;;;21.64;100.00
22255;BME280;11296;42.684;23.322;2022-08-19T02:38:34;94960.03;;;21.78;100.00
22255;BME280;11296;42.684;23.322;2022-08-19T02:41:05;94952.66;;;21.58;100.00
22255;BME280;11296;42.684;23.322;2022-08-19T02:43:33;94959.59;;;21.59;100.00
22255;BME280;11296;42.684;23.322;2022-08-19T02:46:10;94936.53;;;21.47;100.00
22255;BME280;11296;42.684;23.322;2022-08-19T02:48:36;94964.72;;;21.62;100.00
22255;BME280;11296;42.684;23.322;2022-08-19T02:51:02;94948.91;;;21.40;100.00
22255;BME280;11296;42.684;23.322;2022-08-19T02:53:28;94974.16;;;21.54;100.00
22255;BME280;11296;42.684;23.322;2022-08-19T02:55:54;94949.16;;;21.14;100.00
22255;BME280;11296;42.684;23.322;2022-08-19T02:58:22;94981.72;;;21.32;100.00
22255;BME280;11296;42.684;23.322;2022-08-19T03:00:52;94955.25;;;20.99;100.00
22255;BME280;11296;42.684;23.322;2022-08-19T03:03:19;94940.44;;;20.95;100.00
22255;BME280;11296;42.684;23.322;2022-08-19T03:05:44;94999.13;;;21.14;100.00
22255;BME280;11296;42.684;23.322;2022-08-19T03:08:11;94959.91;;;20.91;100.00
22255;BME280;11296;42.684;23.322;2022-08-19T03:10:45;94964.13;;;20.92;100.00
22255;BME280;11296;42.684;23.322;2022-08-19T03:13:16;94979.59;;;20.90;100.00
22255;BME280;11296;42.684;23.322;2022-08-19T03:15:45;94960.22;;;20.80;100.00
22255;BME280;11296;42.684;23.322;2022-08-19T03:18:11;94953.38;;;20.66;100.00
22255;BME280;11296;42.684;23.322;2022-08-19T03:20:43;94957.16;;;20.63;100.00
22255;BME280;11296;42.684;23.322;2022-08-19T03:23:09;94947.66;;;20.56;100.00
22255;BME280;11296;42.684;23.322;2022-08-19T03:25:40;94992.00;;;20.91;100.00
22255;BME280;11296;42.684;23.322;2022-08-19T03:28:10;94936.78;;;20.64;100.00
22255;BME280;11296;42.684;23.322;2022-08-19T03:30:37;94934.19;;;20.58;100.00
22255;BME280;11296;42.684;23.322;2022-08-19T03:33:05;94977.13;;;20.99;100.00
22255;BME280;11296;42.684;23.322;2022-08-19T03:35:31;94963.75;;;20.88;100.00
22255;BME280;11296;42.684;23.322;2022-08-19T03:37:59;94962.81;;;20.86;100.00
22255;BME280;11296;42.684;23.322;2022-08-19T03:40:25;94959.06;;;20.96;100.00
22255;BME280;11296;42.684;23.322;2022-08-19T03:42:51;95004.22;;;21.10;100.00
22255;BME280;11296;42.684;23.322;2022-08-19T03:45:17;94974.25;;;21.05;100.00
22255;BME280;11296;42.684;23.322;2022-08-19T03:47:43;94972.06;;;21.03;100.00
22255;BME280;11296;42.684;23.322;2022-08-19T03:50:09;94972.81;;;21.04;100.00
22255;BME280;11296;42.684;23.322;2022-08-19T03:52:35;94977.53;;;21.03;100.00
22255;BME280;11296;42.684;23.322;2022-08-19T03:55:02;94959.91;;;20.91;100.00
22255;BME280;11296;42.684;23.322;2022-08-19T03:57:28;94993.66;;;21.14;100.00
22255;BME280;11296;42.684;23.322;2022-08-19T03:59:53;94980.84;;;21.09;100.00
22255;BME280;11296;42.684;23.322;2022-08-19T04:02:19;94994.44;;;21.22;100.00
22255;BME280;11296;42.684;23.322;2022-08-19T04:04:45;95004.44;;;21.20;100.00
22255;BME280;11296;42.684;23.322;2022-08-19T04:07:13;95008.97;;;21.17;100.00
22255;BME280;11296;42.684;23.322;2022-08-19T04:09:41;94985.25;;;21.12;100.00
22255;BME280;11296;42.684;23.322;2022-08-19T04:12:07;94990.81;;;21.27;100.00
22255;BME280;11296;42.684;23.322;2022-08-19T04:14:34;94982.03;;;21.21;100.00
22255;BME280;11296;42.684;23.322;2022-08-19T04:17:01;95001.09;;;21.42;100.00
22255;BME280;11296;42.684;23.322;2022-08-19T04:19:30;94972.19;;;21.26;100.00
22255;BME280;11296;42.684;23.322;2022-08-19T04:21:56;94990.25;;;21.21;100.00
22255;BME280;11296;42.684;23.322;2022-08-19T04:24:22;95032.81;;;21.37;100.00
22255;BME280;11296;42.684;23.322;2022-08-19T04:26:48;95007.25;;;21.35;100.00
22255;BME280;11296;42.684;23.322;2022-08-19T04:29:22;95030.28;;;21.39;100.00
22255;BME280;11296;42.684;23.322;2022-08-19T04:31:50;95023.63;;;21.56;100.00
22255;BME280;11296;42.684;23.322;2022-08-19T04:34:18;95030.34;;;21.55;100.00
22255;BME280;11296;42.684;23.322;2022-08-19T04:36:47;94995.59;;;21.34;100.00
22255;BME280;11296;42.684;23.322;2022-08-19T04:39:17;94988.34;;;21.45;100.00
22255;BME280;11296;42.684;23.322;2022-08-19T04:41:43;95017.66;;;21.72;100.00
22255;BME280;11296;42.684;23.322;2022-08-19T04:44:29;95038.25;;;21.94;100.00
22255;BME280;11296;42.684;23.322;2022-08-19T04:46:56;95004.19;;;21.74;100.00
22255;BME280;11296;42.684;23.322;2022-08-19T04:49:23;95023.63;;;21.91;100.00
22255;BME280;11296;42.684;23.322;2022-08-19T04:51:50;94999.88;;;21.86;100.00
22255;BME280;11296;42.684;23.322;2022-08-19T04:54:18;95041.28;;;22.26;100.00
22255;BME280;11296;42.684;23.322;2022-08-19T04:56:52;95005.06;;;22.05;100.00
22255;BME280;11296;42.684;23.322;2022-08-19T04:59:18;95021.53;;;22.20;100.00
22255;BME280;11296;42.684;23.322;2022-08-19T05:01:46;95032.88;;;22.24;100.00
22255;BME280;11296;42.684;23.322;2022-08-19T05:04:14;95009.59;;;22.02;100.00
22255;BME280;11296;42.684;23.322;2022-08-19T05:06:40;95020.44;;;22.23;100.00
22255;BME280;11296;42.684;23.322;2022-08-19T05:09:06;95027.38;;;22.24;100.00
22255;BME280;11296;42.684;23.322;2022-08-19T05:11:35;95003.25;;;22.15;100.00
22255;BME280;11296;42.684;23.322;2022-08-19T05:14:07;95036.56;;;22.42;100.00
22255;BME280;11296;42.684;23.322;2022-08-19T05:16:35;95012.78;;;22.37;100.00
22255;BME280;11296;42.684;23.322;2022-08-19T05:19:01;95038.44;;;22.62;100.00
22255;BME280;11296;42.684;23.322;2022-08-19T05:21:45;95023.44;;;22.55;100.00
22255;BME280;11296;42.684;23.322;2022-08-19T05:24:30;95049.25;;;22.75;100.00
22255;BME280;11296;42.684;23.322;2022-08-19T05:26:56;95051.81;;;22.80;100.00
22255;BME280;11296;42.684;23.322;2022-08-19T05:29:24;95051.06;;;22.88;100.00
22255;BME280;11296;42.684;23.322;2022-08-19T05:31:51;95036.28;;;22.75;100.00
22255;BME280;11296;42.684;23.322;2022-08-19T05:34:19;95031.88;;;22.95;100.00
22255;BME280;11296;42.684;23.322;2022-08-19T05:36:48;94993.84;;;22.76;100.00
22255;BME280;11296;42.684;23.322;2022-08-19T05:39:20;95002.06;;;22.92;100.00
22255;BME280;11296;42.684;23.322;2022-08-19T05:41:48;95000.78;;;22.85;100.00
22255;BME280;11296;42.684;23.322;2022-08-19T05:44:15;95037.56;;;23.20;100.00
22255;BME280;11296;42.684;23.322;2022-08-19T05:46:45;95022.38;;;23.04;100.00
22255;BME280;11296;42.684;23.322;2022-08-19T05:49:15;95015.78;;;23.22;100.00
22255;BME280;11296;42.684;23.322;2022-08-19T05:51:42;95033.69;;;23.38;100.00
22255;BME280;11296;42.684;23.322;2022-08-19T05:54:08;95008.06;;;23.43;100.00
22255;BME280;11296;42.684;23.322;2022-08-19T05:56:41;94995.78;;;23.51;100.00
22255;BME280;11296;42.684;23.322;2022-08-19T05:59:09;95039.00;;;23.98;100.00
22255;BME280;11296;42.684;23.322;2022-08-19T06:01:42;94993.38;;;23.63;100.00
22255;BME280;11296;42.684;23.322;2022-08-19T06:04:08;95015.44;;;23.88;100.00
22255;BME280;11296;42.684;23.322;2022-08-19T06:06:36;95041.56;;;24.11;100.00
22255;BME280;11296;42.684;23.322;2022-08-19T06:09:04;95035.31;;;24.11;100.00
22255;BME280;11296;42.684;23.322;2022-08-19T06:11:39;95019.06;;;24.05;100.00
22255;BME280;11296;42.684;23.322;2022-08-19T06:14:09;94998.72;;;24.01;100.00
22255;BME280;11296;42.684;23.322;2022-08-19T06:16:40;95025.31;;;24.30;100.00
22255;BME280;11296;42.684;23.322;2022-08-19T06:19:10;95034.88;;;24.29;100.00
22255;BME280;11296;42.684;23.322;2022-08-19T06:21:42;94996.09;;;24.10;100.00
22255;BME280;11296;42.684;23.322;2022-08-19T06:24:11;95026.53;;;24.45;100.00
22255;BME280;11296;42.684;23.322;2022-08-19T06:26:39;95001.31;;;24.31;100.00
22255;BME280;11296;42.684;23.322;2022-08-19T06:29:16;95000.16;;;24.42;100.00
22255;BME280;11296;42.684;23.322;2022-08-19T06:31:46;94992.19;;;24.53;100.00
22255;BME280;11296;42.684;23.322;2022-08-19T06:34:15;95011.56;;;24.63;100.00
22255;BME280;11296;42.684;23.322;2022-08-19T06:36:45;95039.00;;;24.78;100.00
22255;BME280;11296;42.684;23.322;2022-08-19T06:39:23;95023.38;;;24.80;100.00
22255;BME280;11296;42.684;23.322;2022-08-19T06:41:52;95010.91;;;25.04;100.00
22255;BME280;11296;42.684;23.322;2022-08-19T06:44:19;95012.88;;;25.11;100.00
22255;BME280;11296;42.684;23.322;2022-08-19T06:46:46;95021.72;;;25.27;100.00
22255;BME280;11296;42.684;23.322;2022-08-19T06:49:14;95005.19;;;25.27;100.00
22255;BME280;11296;42.684;23.322;2022-08-19T06:51:47;95043.72;;;25.68;100.00
22255;BME280;11296;42.684;23.322;2022-08-19T06:54:15;95056.19;;;25.69;100.00
22255;BME280;11296;42.684;23.322;2022-08-19T06:56:42;95046.69;;;25.80;100.00
22255;BME280;11296;42.684;23.322;2022-08-19T06:59:13;95010.00;;;25.60;100.00
22255;BME280;11296;42.684;23.322;2022-08-19T07:01:43;95036.72;;;25.85;100.00
22255;BME280;11296;42.684;23.322;2022-08-19T07:04:14;95021.50;;;25.84;100.00
22255;BME280;11296;42.684;23.322;2022-08-19T07:06:41;95059.34;;;26.17;100.00
22255;BME280;11296;42.684;23.322;2022-08-19T07:09:13;95039.19;;;26.15;100.00
22255;BME280;11296;42.684;23.322;2022-08-19T07:11:46;95039.47;;;26.19;100.00
22255;BME280;11296;42.684;23.322;2022-08-19T07:16:49;95030.47;;;26.18;100.00
22255;BME280;11296;42.684;23.322;2022-08-19T07:19:18;95016.69;;;26.18;100.00
22255;BME280;11296;42.684;23.322;2022-08-19T07:21:48;95035.19;;;26.52;100.00
22255;BME280;11296;42.684;23.322;2022-08-19T07:24:14;95034.28;;;26.50;100.00
22255;BME280;11296;42.684;23.322;2022-08-19T07:26:42;95025.13;;;26.47;96.95
22255;BME280;11296;42.684;23.322;2022-08-19T07:29:10;95030.34;;;26.43;98.39
22255;BME280;11296;42.684;23.322;2022-08-19T07:31:35;95025.34;;;26.59;99.16
22255;BME280;11296;42.684;23.322;2022-08-19T07:34:10;95043.47;;;26.79;100.00
22255;BME280;11296;42.684;23.322;2022-08-19T07:36:44;95010.44;;;26.71;97.95
22255;BME280;11296;42.684;23.322;2022-08-19T07:39:14;95046.44;;;27.00;94.42
22255;BME280;11296;42.684;23.322;2022-08-19T07:41:40;95037.03;;;27.12;96.31
22255;BME280;11296;42.684;23.322;2022-08-19T07:44:09;94996.75;;;27.00;94.48
22255;BME280;11296;42.684;23.322;2022-08-19T07:46:37;95007.25;;;27.11;91.48
22255;BME280;11296;42.684;23.322;2022-08-19T07:49:05;95006.97;;;27.26;84.25
22255;BME280;11296;42.684;23.322;2022-08-19T07:51:59;95002.44;;;27.21;85.20
22255;BME280;11296;42.684;23.322;2022-08-19T07:54:30;95023.75;;;27.38;83.68
22255;BME280;11296;42.684;23.322;2022-08-19T07:56:57;95006.59;;;27.39;82.85
22255;BME280;11296;42.684;23.322;2022-08-19T07:59:24;95025.22;;;27.58;82.91
22255;BME280;11296;42.684;23.322;2022-08-19T08:01:51;95016.06;;;27.65;82.70
22255;BME280;11296;42.684;23.322;2022-08-19T08:04:18;95002.84;;;27.73;82.08
22255;BME280;11296;42.684;23.322;2022-08-19T08:07:06;95027.88;;;28.13;82.80
22255;BME280;11296;42.684;23.322;2022-08-19T08:09:51;95037.56;;;28.43;80.85
22255;BME280;11296;42.684;23.322;2022-08-19T08:12:31;95030.69;;;28.53;77.58
22255;BME280;11296;42.684;23.322;2022-08-19T08:15:00;95008.88;;;28.38;75.67
22255;BME280;11296;42.684;23.322;2022-08-19T08:17:30;95004.81;;;28.30;73.87
22255;BME280;11296;42.684;23.322;2022-08-19T08:19:57;95021.06;;;28.54;72.78
22255;BME280;11296;42.684;23.322;2022-08-19T08:22:23;94985.16;;;28.35;70.67
22255;BME280;11296;42.684;23.322;2022-08-19T08:25:11;94998.63;;;28.60;71.13
22255;BME280;11296;42.684;23.322;2022-08-19T08:27:39;94977.34;;;28.63;70.34
22255;BME280;11296;42.684;23.322;2022-08-19T08:30:11;94987.06;;;28.73;68.98
22255;BME280;11296;42.684;23.322;2022-08-19T08:32:38;94999.38;;;28.91;70.79
22255;BME280;11296;42.684;23.322;2022-08-19T08:35:10;94972.56;;;28.94;68.66
22255;BME280;11296;42.684;23.322;2022-08-19T08:44:22;94983.84;;;29.38;61.31
22255;BME280;11296;42.684;23.322;2022-08-19T08:46:55;94996.38;;;29.60;60.75
22255;BME280;11296;42.684;23.322;2022-08-19T08:49:28;94977.22;;;29.64;60.48
22255;BME280;11296;42.684;23.322;2022-08-19T08:52:33;94972.88;;;29.82;59.71
22255;BME280;11296;42.684;23.322;2022-08-19T08:55:17;94978.59;;;30.08;59.76
22255;BME280;11296;42.684;23.322;2022-08-19T08:57:54;94959.47;;;30.12;59.48
22255;BME280;11296;42.684;23.322;2022-08-19T09:00:25;94976.41;;;30.39;60.93
22255;BME280;11296;42.684;23.322;2022-08-19T09:02:56;94953.03;;;30.53;57.23
22255;BME280;11296;42.684;23.322;2022-08-19T09:05:27;94950.84;;;30.52;51.23
22255;BME280;11296;42.684;23.322;2022-08-19T09:11:08;94966.06;;;30.51;51.25
22255;BME280;11296;42.684;23.322;2022-08-19T09:13:44;95008.44;;;30.74;50.70
22255;BME280;11296;42.684;23.322;2022-08-19T09:16:16;94955.66;;;30.51;50.47
22255;BME280;11296;42.684;23.322;2022-08-19T09:18:56;94979.59;;;30.80;48.78
22255;BME280;11296;42.684;23.322;2022-08-19T09:21:24;94983.72;;;31.02;48.44
22255;BME280;11296;42.684;23.322;2022-08-19T09:23:53;94955.22;;;30.90;47.30
22255;BME280;11296;42.684;23.322;2022-08-19T09:26:20;94954.69;;;31.16;48.25
22255;BME280;11296;42.684;23.322;2022-08-19T09:28:48;94951.06;;;31.25;47.26
22255;BME280;11296;42.684;23.322;2022-08-19T09:31:17;94959.34;;;31.48;45.32
22255;BME280;11296;42.684;23.322;2022-08-19T09:33:44;94946.56;;;31.43;43.24
22255;BME280;11296;42.684;23.322;2022-08-19T09:36:12;94945.13;;;31.42;41.93
22255;BME280;11296;42.684;23.322;2022-08-19T09:38:39;94991.03;;;31.92;40.28
22255;BME280;11296;42.684;23.322;2022-08-19T09:41:14;94963.13;;;31.78;39.45
22255;BME280;11296;42.684;23.322;2022-08-19T09:43:41;94985.13;;;32.11;43.28
22255;BME280;11296;42.684;23.322;2022-08-19T09:46:08;94950.28;;;32.10;40.91
22255;BME280;11296;42.684;23.322;2022-08-19T09:48:40;94963.19;;;32.17;40.34
22255;BME280;11296;42.684;23.322;2022-08-19T09:53:38;94929.47;;;32.11;38.95
22255;BME280;11296;42.684;23.322;2022-08-19T09:56:05;94926.81;;;32.13;38.72
22255;BME280;11296;42.684;23.322;2022-08-19T09:58:32;94931.50;;;32.36;39.06
22255;BME280;11296;42.684;23.322;2022-08-19T10:00:59;94941.56;;;32.54;37.25
22255;BME280;11296;42.684;23.322;2022-08-19T10:03:27;94965.34;;;32.82;37.65
22255;BME280;11296;42.684;23.322;2022-08-19T10:05:53;94959.44;;;32.90;37.30
22255;BME280;11296;42.684;23.322;2022-08-19T10:08:22;94921.47;;;32.69;37.31
22255;BME280;11296;42.684;23.322;2022-08-19T10:10:51;94903.59;;;32.74;38.03
22255;BME280;11296;42.684;23.322;2022-08-19T10:13:20;94915.19;;;32.82;35.80
22255;BME280;11296;42.684;23.322;2022-08-19T10:15:56;94922.19;;;32.97;36.25
22255;BME280;11296;42.684;23.322;2022-08-19T10:18:24;94913.63;;;32.66;36.37
22255;BME280;11296;42.684;23.322;2022-08-19T10:20:51;94920.03;;;32.68;36.94
22255;BME280;11296;42.684;23.322;2022-08-19T10:23:20;94951.81;;;32.90;36.19
22255;BME280;11296;42.684;23.322;2022-08-19T10:25:47;94930.03;;;32.73;36.62
22255;BME280;11296;42.684;23.322;2022-08-19T10:28:13;94907.03;;;32.73;37.46
22255;BME280;11296;42.684;23.322;2022-08-19T10:30:39;94917.97;;;32.82;36.06
22255;BME280;11296;42.684;23.322;2022-08-19T10:33:05;94900.31;;;32.78;36.56
22255;BME280;11296;42.684;23.322;2022-08-19T10:35:32;94918.28;;;33.02;36.02
22255;BME280;11296;42.684;23.322;2022-08-19T10:37:58;94895.38;;;33.04;36.38
22255;BME280;11296;42.684;23.322;2022-08-19T10:40:26;94897.91;;;33.27;36.40
22255;BME280;11296;42.684;23.322;2022-08-19T10:42:53;94909.22;;;33.58;35.87
22255;BME280;11296;42.684;23.322;2022-08-19T10:45:18;94934.50;;;33.62;35.60
22255;BME280;11296;42.684;23.322;2022-08-19T10:47:47;94904.81;;;33.53;35.71
22255;BME280;11296;42.684;23.322;2022-08-19T10:50:13;94917.53;;;33.72;34.64
22255;BME280;11296;42.684;23.322;2022-08-19T10:52:57;94898.50;;;33.82;34.49
22255;BME280;11296;42.684;23.322;2022-08-19T10:55:23;94916.91;;;34.02;34.15
22255;BME280;11296;42.684;23.322;2022-08-19T10:58:14;94897.13;;;33.83;35.21
22255;BME280;11296;42.684;23.322;2022-08-19T11:00:40;94895.66;;;33.66;34.22
22255;BME280;11296;42.684;23.322;2022-08-19T11:03:06;94917.69;;;33.89;35.44
22255;BME280;11296;42.684;23.322;2022-08-19T11:05:32;94919.72;;;34.02;34.58
22255;BME280;11296;42.684;23.322;2022-08-19T11:07:57;94904.34;;;33.88;34.48
22255;BME280;11296;42.684;23.322;2022-08-19T11:10:23;94902.38;;;33.90;34.73
22255;BME280;11296;42.684;23.322;2022-08-19T11:12:49;94923.78;;;34.15;34.37
22255;BME280;11296;42.684;23.322;2022-08-19T11:15:22;94871.59;;;33.88;34.39
22255;BME280;11296;42.684;23.322;2022-08-19T11:17:51;94896.31;;;34.09;33.74
22255;BME280;11296;42.684;23.322;2022-08-19T11:20:19;94926.69;;;34.32;34.30
22255;BME280;11296;42.684;23.322;2022-08-19T11:22:45;94896.16;;;34.21;33.61
22255;BME280;11296;42.684;23.322;2022-08-19T11:25:14;94887.84;;;34.07;33.76
22255;BME280;11296;42.684;23.322;2022-08-19T11:27:40;94873.34;;;34.26;34.29
22255;BME280;11296;42.684;23.322;2022-08-19T11:30:13;94893.56;;;34.72;34.56
22255;BME280;11296;42.684;23.322;2022-08-19T11:32:40;94871.00;;;34.68;34.23
22255;BME280;11296;42.684;23.322;2022-08-19T11:35:07;94852.28;;;34.55;33.51
22255;BME280;11296;42.684;23.322;2022-08-19T11:37:32;94860.19;;;34.76;34.86
22255;BME280;11296;42.684;23.322;2022-08-19T11:40:06;94886.41;;;34.84;33.01
22255;BME280;11296;42.684;23.322;2022-08-19T11:42:34;94844.16;;;34.61;32.85
22255;BME280;11296;42.684;23.322;2022-08-19T11:45:19;94845.13;;;34.83;32.61
22255;BME280;11296;42.684;23.322;2022-08-19T11:47:44;94854.78;;;35.13;32.97
22255;BME280;11296;42.684;23.322;2022-08-19T11:50:11;94867.53;;;35.34;33.01
22255;BME280;11296;42.684;23.322;2022-08-19T11:52:37;94889.09;;;35.31;32.38
22255;BME280;11296;42.684;23.322;2022-08-19T11:55:03;94847.75;;;35.12;32.10
22255;BME280;11296;42.684;23.322;2022-08-19T11:57:29;94861.25;;;35.18;32.63
22255;BME280;11296;42.684;23.322;2022-08-19T11:59:54;94848.00;;;35.18;32.29
22255;BME280;11296;42.684;23.322;2022-08-19T12:02:23;94851.19;;;34.95;31.96
22255;BME280;11296;42.684;23.322;2022-08-19T12:04:49;94858.78;;;34.92;32.16
22255;BME280;11296;42.684;23.322;2022-08-19T12:07:15;94851.75;;;35.07;32.79
22255;BME280;11296;42.684;23.322;2022-08-19T12:09:41;94846.97;;;35.27;32.32
22255;BME280;11296;42.684;23.322;2022-08-19T12:12:06;94852.16;;;35.35;32.62
22255;BME280;11296;42.684;23.322;2022-08-19T12:14:32;94815.72;;;35.33;31.76
22255;BME280;11296;42.684;23.322;2022-08-19T12:16:59;94803.72;;;35.48;31.57
22255;BME280;11296;42.684;23.322;2022-08-19T12:19:25;94840.28;;;35.69;32.15
22255;BME280;11296;42.684;23.322;2022-08-19T12:21:51;94814.13;;;35.63;32.08
22255;BME280;11296;42.684;23.322;2022-08-19T12:24:19;94805.72;;;35.81;31.45
22255;BME280;11296;42.684;23.322;2022-08-19T12:26:48;94809.22;;;35.99;31.75
22255;BME280;11296;42.684;23.322;2022-08-19T12:29:14;94808.31;;;35.94;31.23
22255;BME280;11296;42.684;23.322;2022-08-19T12:31:40;94786.66;;;35.95;30.97
22255;BME280;11296;42.684;23.322;2022-08-19T12:34:06;94788.00;;;35.94;31.68
22255;BME280;11296;42.684;23.322;2022-08-19T12:36:31;94815.34;;;36.13;31.09
22255;BME280;11296;42.684;23.322;2022-08-19T12:38:58;94786.41;;;36.06;30.99
22255;BME280;11296;42.684;23.322;2022-08-19T12:41:28;94824.13;;;36.23;30.14
22255;BME280;11296;42.684;23.322;2022-08-19T12:44:46;94799.19;;;36.31;29.97
22255;BME280;11296;42.684;23.322;2022-08-19T12:47:13;94831.25;;;36.65;30.16
22255;BME280;11296;42.684;23.322;2022-08-19T12:50:02;94819.75;;;36.96;30.41
22255;BME280;11296;42.684;23.322;2022-08-19T12:52:31;94764.50;;;37.01;29.75
22255;BME280;11296;42.684;23.322;2022-08-19T12:54:58;94785.94;;;37.57;29.04
22255;BME280;11296;42.684;23.322;2022-08-19T13:00:25;94778.88;;;38.77;28.06
22255;BME280;11296;42.684;23.322;2022-08-19T13:02:53;94775.09;;;39.53;27.43
22255;BME280;11296;42.684;23.322;2022-08-19T13:05:33;94771.44;;;40.82;24.88
22255;BME280;11296;42.684;23.322;2022-08-19T13:08:04;94762.84;;;42.07;23.27
22255;BME280;11296;42.684;23.322;2022-08-19T13:10:34;94755.94;;;42.86;22.08
22255;BME280;11296;42.684;23.322;2022-08-19T13:13:07;94790.97;;;44.17;21.11